Time;durP1;ratioP1;P1;durP2;ratioP2;P2;SDS_P1;SDS_P2;PMS_P1;PMS_P2;Temp;Humidity;BMP_temperature;BMP_pressure;BME280_temperature;BME280_humidity;BME280_pressure;Samples;Min_cycle;Max_cycle;Signal;HPM_P1;HPM_P2
2023/06/02 00:02:15;;;;;;;5.93;3.25;;;;;;;15.61;77.32;99194.44;4981520;28;20038;-92
2023/06/02 00:04:40;;;;;;;5.55;3.33;;;;;;;15.61;77.17;99191.72;5013584;28;20037;-93
2023/06/02 00:07:07;;;;;;;6.55;3.47;;;;;;;15.57;77.87;99191.53;5016727;28;20025;-92
2023/06/02 00:09:40;;;;;;;6.85;4.10;;;;;;;15.55;77.93;99193.75;4966791;28;20462;-91
2023/06/02 00:12:07;;;;;;;6.70;3.83;;;;;;;15.59;78.22;99194.75;4999753;28;20029;-93
2023/06/02 00:14:33;;;;;;;6.07;3.47;;;;;;;15.49;78.31;99182.19;4983752;28;20141;-92
2023/06/02 00:17:02;;;;;;;6.50;3.78;;;;;;;15.64;78.30;99199.25;5015460;28;20115;-93
2023/06/02 00:19:30;;;;;;;5.25;3.78;;;;;;;15.58;78.28;99201.25;4999556;28;20064;-92
2023/06/02 00:22:05;;;;;;;5.07;3.55;;;;;;;15.52;77.99;99192.44;4983099;28;20477;-92
2023/06/02 00:24:31;;;;;;;9.45;3.90;;;;;;;15.39;78.04;99176.19;4999094;28;20021;-92
2023/06/02 00:26:57;;;;;;;9.30;3.90;;;;;;;15.40;77.87;99175.06;4998988;28;20021;-92
2023/06/02 00:29:23;;;;;;;6.82;3.67;;;;;;;15.31;78.38;99164.94;4982765;28;20034;-92
2023/06/02 00:31:48;;;;;;;6.57;3.90;;;;;;;15.31;78.53;99172.28;4982487;28;20025;-92
2023/06/02 00:34:14;;;;;;;5.32;3.33;;;;;;;15.23;78.09;99171.13;4999300;28;20064;-92
2023/06/02 00:36:39;;;;;;;4.35;3.53;;;;;;;15.27;77.75;99177.53;4999003;28;20034;-93
2023/06/02 00:39:05;;;;;;;7.47;3.92;;;;;;;15.20;77.39;99160.06;4999061;28;20032;-91
2023/06/02 00:41:30;;;;;;;5.20;3.95;;;;;;;15.32;77.74;99179.31;4998692;28;20025;-92
2023/06/02 00:43:56;;;;;;;5.82;3.53;;;;;;;15.23;77.90;99178.44;4999046;28;20030;-93
2023/06/02 00:46:22;;;;;;;7.07;3.85;;;;;;;15.13;78.02;99166.69;4998577;28;20029;-93
2023/06/02 00:48:50;;;;;;;6.07;3.58;;;;;;;15.16;78.11;99179.63;4998944;28;20060;-93
2023/06/02 00:51:16;;;;;;;5.25;3.55;;;;;;;15.09;77.71;99165.69;4964462;28;20083;-91
2023/06/02 00:53:43;;;;;;;6.80;3.90;;;;;;;15.15;78.15;99180.75;4982421;28;20201;-92
2023/06/02 00:56:11;;;;;;;8.07;3.70;;;;;;;15.08;78.02;99166.78;5000310;28;20124;-93
2023/06/02 00:58:37;;;;;;;6.45;3.50;;;;;;;15.11;78.45;99185.19;4999781;28;20033;-92
2023/06/02 01:01:08;;;;;;;6.15;3.80;;;;;;;15.08;78.09;99168.72;4983789;28;20036;-93
2023/06/02 01:03:35;;;;;;;5.33;3.87;;;;;;;14.98;78.29;99174.34;4984780;28;20029;-91
2023/06/02 01:06:02;;;;;;;9.25;3.72;;;;;;;14.90;78.31;99157.69;4984251;28;20026;-92
2023/06/02 01:08:28;;;;;;;4.78;3.40;;;;;;;15.03;78.26;99177.75;4985965;28;20097;-93
2023/06/02 01:10:55;;;;;;;8.27;4.03;;;;;;;14.93;78.56;99173.34;5017107;28;20030;-93
2023/06/02 01:13:21;;;;;;;5.25;3.80;;;;;;;14.94;78.11;99169.53;4998084;28;20046;-94
2023/06/02 01:15:46;;;;;;;4.78;3.63;;;;;;;14.83;77.70;99154.56;4998344;28;20030;-92
2023/06/02 01:18:12;;;;;;;5.88;3.85;;;;;;;14.83;77.95;99164.59;4997855;28;20431;-91
2023/06/02 01:20:49;;;;;;;10.85;3.90;;;;;;;14.87;77.80;99168.31;4978044;28;20050;-93
2023/06/02 01:23:21;;;;;;;7.53;4.10;;;;;;;14.78;78.09;99173.66;4977762;28;20026;-93
2023/06/02 01:25:46;;;;;;;5.05;3.65;;;;;;;14.58;78.53;99157.78;4978565;28;20030;-92
2023/06/02 01:28:12;;;;;;;6.25;4.07;;;;;;;14.65;78.18;99158.19;4978020;28;20101;-93
2023/06/02 01:30:38;;;;;;;7.20;3.72;;;;;;;14.66;78.32;99166.00;4977988;28;20113;-93
2023/06/02 01:33:09;;;;;;;8.60;3.30;;;;;;;14.73;78.40;99177.28;4977891;28;20050;-93
2023/06/02 01:35:42;;;;;;;5.80;3.65;;;;;;;14.63;78.10;99146.84;4994163;28;20527;-91
2023/06/02 01:38:14;;;;;;;6.35;3.58;;;;;;;14.70;78.31;99158.09;4978169;28;20394;-91
2023/06/02 01:40:40;;;;;;;6.35;3.88;;;;;;;14.62;78.41;99153.38;4995191;28;20034;-91
2023/06/02 01:43:06;;;;;;;9.18;4.07;;;;;;;14.52;78.57;99138.88;4978468;28;20026;-92
2023/06/02 01:45:32;;;;;;;7.10;3.80;;;;;;;14.57;78.13;99138.03;4978009;28;20049;-91
2023/06/02 01:48:02;;;;;;;7.70;3.53;;;;;;;14.52;78.02;99119.09;4978137;28;20030;-92
2023/06/02 01:50:28;;;;;;;4.82;3.63;;;;;;;14.60;78.09;99129.28;4994246;28;20089;-91
2023/06/02 01:52:54;;;;;;;5.68;3.70;;;;;;;14.49;78.06;99117.00;4977975;28;20073;-91
2023/06/02 01:55:19;;;;;;;5.43;3.78;;;;;;;14.53;78.31;99118.03;4993781;28;20031;-92
2023/06/02 01:57:45;;;;;;;6.38;3.60;;;;;;;14.52;78.24;99132.66;4962178;28;20030;-91
2023/06/02 02:00:11;;;;;;;5.63;3.70;;;;;;;14.54;78.40;99144.00;4962242;28;20030;-91
2023/06/02 02:02:36;;;;;;;5.65;3.83;;;;;;;14.51;77.83;99136.47;4994428;28;20044;-92
2023/06/02 02:05:02;;;;;;;8.32;3.92;;;;;;;14.34;78.06;99121.63;4977973;28;20108;-91
2023/06/02 02:07:32;;;;;;;6.05;3.80;;;;;;;14.38;78.15;99123.72;4978164;28;20034;-92
2023/06/02 02:09:57;;;;;;;4.57;3.22;;;;;;;14.33;77.78;99120.00;4977963;28;20034;-91
2023/06/02 02:12:24;;;;;;;5.53;3.30;;;;;;;14.58;78.03;99150.44;4977869;28;20046;-91
2023/06/02 02:14:51;;;;;;;4.25;3.45;;;;;;;14.51;77.88;99148.13;4977818;28;20031;-91
2023/06/02 02:17:17;;;;;;;7.00;3.67;;;;;;;14.44;77.63;99141.47;4994882;28;20032;-91
2023/06/02 02:19:50;;;;;;;7.90;3.90;;;;;;;14.55;77.78;99149.16;4964473;28;20058;-91
2023/06/02 02:22:16;;;;;;;6.50;3.70;;;;;;;14.46;77.57;99145.47;5011759;28;20409;-92
2023/06/02 02:24:41;;;;;;;8.25;3.42;;;;;;;14.38;77.83;99129.97;4979382;28;20088;-92
2023/06/02 02:27:08;;;;;;;5.78;3.70;;;;;;;14.53;77.89;99161.38;4977763;28;20026;-91
2023/06/02 02:29:35;;;;;;;10.43;3.88;;;;;;;14.41;77.56;99142.09;5011111;28;20505;-91
2023/06/02 02:32:00;;;;;;;5.65;3.67;;;;;;;14.46;77.63;99152.81;4977544;28;20026;-91
2023/06/02 02:34:26;;;;;;;9.60;3.88;;;;;;;14.51;77.76;99166.28;4976954;28;20034;-91
2023/06/02 02:36:52;;;;;;;6.07;3.88;;;;;;;14.29;77.81;99139.84;4977929;28;20027;-90
2023/06/02 02:39:20;;;;;;;7.90;4.65;;;;;;;14.33;78.31;99152.50;4993872;28;20382;-91
2023/06/02 02:41:45;;;;;;;12.95;5.47;;;;;;;14.29;78.35;99143.34;4979626;28;20082;-91
2023/06/02 02:44:10;;;;;;;7.97;5.05;;;;;;;14.39;78.52;99152.41;4979242;28;20030;-91
2023/06/02 02:46:36;;;;;;;16.13;5.40;;;;;;;14.27;78.29;99137.44;4994242;28;20033;-91
2023/06/02 02:49:01;;;;;;;10.18;5.47;;;;;;;14.33;78.33;99147.09;4962042;28;20022;-90
2023/06/02 02:51:27;;;;;;;10.07;5.25;;;;;;;14.22;78.21;99131.34;4975958;28;20018;-91
2023/06/02 02:53:52;;;;;;;8.25;5.43;;;;;;;14.28;78.25;99136.34;4962252;28;20030;-91
2023/06/02 02:56:18;;;;;;;7.25;5.07;;;;;;;14.42;78.36;99159.94;4964494;28;20026;-91
2023/06/02 02:58:44;;;;;;;9.70;5.38;;;;;;;14.31;78.18;99133.03;4963392;28;20337;-91
2023/06/02 03:01:15;;;;;;;6.75;4.50;;;;;;;14.59;77.99;99159.38;4949140;28;20018;-92
2023/06/02 03:03:41;;;;;;;9.90;5.18;;;;;;;14.58;78.14;99155.88;4966057;28;20030;-92
2023/06/02 03:06:07;;;;;;;15.38;6.03;;;;;;;14.54;78.06;99146.69;4963525;28;20033;-93
2023/06/02 03:08:32;;;;;;;9.15;4.45;;;;;;;14.57;77.62;99148.03;4961935;28;20026;-92
2023/06/02 03:10:58;;;;;;;8.90;5.35;;;;;;;14.52;77.46;99136.16;4960281;28;20562;-93
2023/06/02 03:13:23;;;;;;;10.00;5.75;;;;;;;14.65;77.13;99150.88;4961184;28;20018;-92
2023/06/02 03:15:49;;;;;;;7.32;5.00;;;;;;;14.59;77.25;99137.69;4964060;28;20026;-93
2023/06/02 03:18:14;;;;;;;10.77;4.85;;;;;;;14.70;76.98;99139.13;4964359;28;20022;-93
2023/06/02 03:20:41;;;;;;;9.68;4.70;;;;;;;14.84;77.01;99150.75;4977227;28;20038;-93
2023/06/02 03:23:09;;;;;;;7.18;4.60;;;;;;;14.82;76.64;99139.41;4999786;28;20052;-92
2023/06/02 03:25:35;;;;;;;7.38;4.47;;;;;;;14.90;76.31;99132.47;4984152;28;20033;-93
2023/06/02 03:28:01;;;;;;;10.05;4.80;;;;;;;14.99;75.95;99152.34;4983120;28;20026;-91
2023/06/02 03:30:26;;;;;;;10.02;4.80;;;;;;;14.97;76.34;99132.88;4998949;28;20064;-92
2023/06/02 03:32:54;;;;;;;9.30;5.15;;;;;;;14.91;76.08;99131.38;4983962;28;20092;-92
2023/06/02 03:35:20;;;;;;;7.07;4.85;;;;;;;14.99;76.36;99124.44;4983010;28;20080;-93
2023/06/02 03:37:45;;;;;;;9.07;5.15;;;;;;;15.10;76.08;99136.66;4998732;28;20022;-93
2023/06/02 03:40:11;;;;;;;9.80;4.38;;;;;;;15.11;76.00;99122.81;4982677;28;20032;-92
2023/06/02 03:42:37;;;;;;;5.60;4.13;;;;;;;15.24;76.10;99131.22;4966317;28;20499;-92
2023/06/02 03:45:03;;;;;;;8.70;4.97;;;;;;;15.26;75.50;99134.44;4998772;28;20033;-93
2023/06/02 03:47:28;;;;;;;9.10;4.32;;;;;;;15.23;75.16;99119.56;4999238;28;20025;-92
2023/06/02 03:49:54;;;;;;;9.90;4.30;;;;;;;15.41;75.33;99136.00;4964787;28;20066;-92
2023/06/02 03:52:19;;;;;;;6.22;4.32;;;;;;;15.39;74.30;99120.00;4978921;28;20030;-91
2023/06/02 03:54:45;;;;;;;6.55;4.20;;;;;;;15.46;72.92;99119.59;4967328;28;20437;-93
2023/06/02 03:57:10;;;;;;;8.07;4.40;;;;;;;15.59;73.40;99131.53;4962914;28;20033;-92
2023/06/02 03:59:36;;;;;;;8.85;4.30;;;;;;;15.54;71.71;99129.72;4965808;28;20037;-92
2023/06/02 04:02:01;;;;;;;5.50;4.00;;;;;;;15.56;69.63;99119.34;4983952;28;20485;-92
2023/06/02 04:04:27;;;;;;;8.25;3.88;;;;;;;15.71;69.10;99134.50;4979555;28;20503;-93
2023/06/02 04:06:53;;;;;;;6.15;3.67;;;;;;;15.69;69.24;99128.56;4998360;28;20038;-92
2023/06/02 04:09:18;;;;;;;8.75;4.05;;;;;;;15.69;69.60;99137.50;4982141;28;20022;-92
2023/06/02 04:11:44;;;;;;;17.38;4.30;;;;;;;15.67;69.51;99119.94;4998493;28;20021;-92
2023/06/02 04:14:10;;;;;;;14.13;4.53;;;;;;;15.73;70.04;99126.88;4981979;28;20037;-91
2023/06/02 04:16:35;;;;;;;9.13;4.53;;;;;;;15.91;69.30;99127.78;4968254;28;20033;-93
2023/06/02 04:19:01;;;;;;;11.13;5.30;;;;;;;16.04;69.19;99137.78;5001058;28;20053;-91
2023/06/02 04:21:26;;;;;;;6.70;4.50;;;;;;;16.01;67.96;99132.94;4965666;28;20026;-91
2023/06/02 04:23:52;;;;;;;8.32;4.05;;;;;;;16.06;67.44;99134.72;4982006;28;20033;-91
2023/06/02 04:26:17;;;;;;;4.65;3.55;;;;;;;16.14;67.20;99121.22;4982446;28;20026;-92
2023/06/02 04:28:43;;;;;;;7.45;4.43;;;;;;;16.27;67.03;99110.53;4982117;28;20032;-92
2023/06/02 04:31:11;;;;;;;7.20;4.20;;;;;;;16.46;65.61;99143.75;4998758;28;20476;-91
2023/06/02 04:33:37;;;;;;;11.15;6.65;;;;;;;16.39;65.33;99118.13;4967890;28;20029;-92
2023/06/02 04:36:03;;;;;;;12.50;3.83;;;;;;;16.69;65.08;99141.75;4983147;28;20038;-90
2023/06/02 04:38:29;;;;;;;11.60;4.75;;;;;;;16.72;66.04;99138.38;4982116;28;20389;-91
2023/06/02 04:41:01;;;;;;;7.65;4.10;;;;;;;16.67;65.94;99121.44;4982088;28;20026;-92
2023/06/02 04:43:27;;;;;;;28.38;10.27;;;;;;;16.77;65.51;99126.59;4984355;28;20045;-92
2023/06/02 04:45:56;;;;;;;11.57;4.25;;;;;;;16.68;66.53;99112.94;4967847;28;20080;-94
2023/06/02 04:48:21;;;;;;;6.85;3.92;;;;;;;17.01;65.17;99139.78;4968276;28;20092;-92
2023/06/02 04:50:47;;;;;;;9.52;4.85;;;;;;;16.96;66.30;99110.81;4968525;28;20034;-92
2023/06/02 04:53:15;;;;;;;7.97;4.65;;;;;;;17.03;65.78;99120.44;4953530;28;20034;-91
2023/06/02 04:55:43;;;;;;;10.27;4.25;;;;;;;17.04;64.08;99103.78;4953498;28;20464;-91
2023/06/02 04:58:08;;;;;;;13.48;4.18;;;;;;;17.12;62.72;99100.28;4954551;28;20559;-92
2023/06/02 05:00:34;;;;;;;6.65;4.22;;;;;;;17.30;62.59;99124.78;4995281;28;20026;-93
2023/06/02 05:03:00;;;;;;;7.95;3.90;;;;;;;17.24;61.99;99113.25;4963846;28;20027;-93
2023/06/02 05:05:25;;;;;;;6.80;3.85;;;;;;;17.45;61.67;99126.22;4995711;28;20026;-92
2023/06/02 05:07:52;;;;;;;5.53;3.60;;;;;;;17.52;60.36;99130.06;4980353;28;20513;-92
2023/06/02 05:10:17;;;;;;;6.38;3.65;;;;;;;17.56;60.45;99111.97;4961425;28;20057;-90
2023/06/02 05:12:43;;;;;;;5.93;4.18;;;;;;;17.82;60.02;99127.47;4994559;28;20033;-89
2023/06/02 05:15:11;;;;;;;12.48;4.15;;;;;;;17.90;59.55;99115.81;5009380;28;20400;-89
2023/06/02 05:17:36;;;;;;;7.50;4.15;;;;;;;17.91;60.59;99111.19;4994282;28;20028;-89
2023/06/02 05:20:02;;;;;;;9.43;4.35;;;;;;;17.98;59.87;99120.44;5018206;28;20054;-89
2023/06/02 05:22:29;;;;;;;6.63;4.22;;;;;;;18.17;59.61;99128.22;4999168;28;20036;-91
2023/06/02 05:24:55;;;;;;;8.32;4.28;;;;;;;18.21;59.79;99117.50;5001135;28;20040;-93
2023/06/02 05:27:20;;;;;;;12.43;7.95;;;;;;;18.24;59.08;99114.13;5036588;28;20026;-92
2023/06/02 05:29:46;;;;;;;10.18;4.32;;;;;;;18.38;59.02;99125.59;5016388;28;20033;-90
2023/06/02 05:32:11;;;;;;;7.43;3.85;;;;;;;18.52;58.31;99127.31;5016857;28;20034;-90
2023/06/02 05:34:37;;;;;;;6.93;3.95;;;;;;;18.55;58.10;99116.56;5033135;28;20091;-91
2023/06/02 05:37:02;;;;;;;8.48;4.15;;;;;;;18.70;58.72;99128.84;5016627;28;20414;-90
2023/06/02 05:39:28;;;;;;;7.03;3.85;;;;;;;18.71;58.53;99110.56;5001837;28;20117;-95
2023/06/02 05:41:54;;;;;;;5.70;3.92;;;;;;;18.73;58.36;99105.56;5018238;28;20021;-94
2023/06/02 05:44:19;;;;;;;8.15;3.92;;;;;;;18.94;57.69;99125.53;5018912;28;20110;-92
2023/06/02 05:46:45;;;;;;;19.77;5.32;;;;;;;18.93;57.82;99110.28;5018745;28;20036;-90
2023/06/02 05:49:10;;;;;;;16.27;8.55;;;;;;;19.07;57.18;99106.50;4998729;28;20029;-95
2023/06/02 05:51:37;;;;;;;10.20;4.30;;;;;;;19.12;57.10;99095.41;5014240;28;20029;-93
2023/06/02 05:54:06;;;;;;;7.20;4.63;;;;;;;19.22;58.30;99105.94;5015531;28;21253;-94
2023/06/02 05:56:32;;;;;;;17.10;11.07;;;;;;;19.31;58.34;99103.13;5000545;28;20097;-91
2023/06/02 05:58:58;;;;;;;6.20;4.03;;;;;;;19.49;55.73;99118.25;5031238;28;20032;-91
2023/06/02 06:01:23;;;;;;;10.40;5.03;;;;;;;19.52;54.57;99105.84;5001029;28;20021;-91
2023/06/02 06:03:49;;;;;;;5.38;4.22;;;;;;;19.56;54.85;99106.78;4999037;28;20538;-93
2023/06/02 06:06:15;;;;;;;7.30;3.92;;;;;;;19.57;54.56;99097.47;4997495;28;20093;-95
2023/06/02 06:08:40;;;;;;;7.53;3.83;;;;;;;19.72;54.37;99110.50;4999367;28;20475;-93
2023/06/02 06:11:06;;;;;;;8.15;3.80;;;;;;;19.86;53.84;99112.97;4998548;28;20045;-93
2023/06/02 06:13:31;;;;;;;11.35;4.90;;;;;;;19.96;52.86;99112.53;5015593;28;20034;-95
2023/06/02 06:15:57;;;;;;;7.32;3.80;;;;;;;20.12;53.33;99106.41;4968449;28;20084;-96
2023/06/02 06:18:22;;;;;;;7.00;3.53;;;;;;;20.26;53.45;99117.84;4969449;28;20535;-95
2023/06/02 06:20:56;;;;;;;8.77;3.80;;;;;;;20.30;54.26;99105.09;4973102;28;20140;-96
2023/06/02 06:23:21;;;;;;;9.57;4.22;;;;;;;20.37;53.64;99109.97;5000073;28;20042;-93
2023/06/02 06:25:47;;;;;;;12.05;3.90;;;;;;;20.60;53.23;99118.56;4980142;28;20103;-95
2023/06/02 06:28:16;;;;;;;8.00;3.75;;;;;;;20.59;52.98;99104.09;5005716;28;20065;-94
2023/06/02 06:30:45;;;;;;;12.27;4.25;;;;;;;20.74;52.86;99115.50;4968542;28;20117;-96
2023/06/02 06:33:16;;;;;;;10.63;4.40;;;;;;;20.89;50.57;99116.75;4967880;28;20053;-96
2023/06/02 06:35:50;;;;;;;11.23;8.18;;;;;;;21.11;51.20;99116.25;4968086;28;20026;-94
2023/06/02 06:38:16;;;;;;;11.00;5.03;;;;;;;21.15;50.61;99100.75;4984845;28;20030;-95
2023/06/02 06:40:48;;;;;;;10.02;5.03;;;;;;;21.31;51.77;99116.44;4965036;28;20499;-94
2023/06/02 06:43:18;;;;;;;8.52;3.97;;;;;;;21.36;50.74;99106.03;4985136;28;20042;-95
2023/06/02 06:45:53;;;;;;;9.00;3.88;;;;;;;21.52;50.20;99108.06;4997057;28;20026;-92
2023/06/02 06:48:19;;;;;;;8.93;3.90;;;;;;;21.59;50.01;99105.53;4990219;28;20049;-93
2023/06/02 06:50:44;;;;;;;9.23;4.15;;;;;;;21.51;50.69;99099.06;4980472;28;20058;-96
2023/06/02 06:53:11;;;;;;;6.13;3.90;;;;;;;21.45;49.74;99103.19;4985932;28;20118;-93
2023/06/02 06:55:36;;;;;;;8.52;3.85;;;;;;;21.65;49.97;99097.88;4987574;28;20037;-94
2023/06/02 06:58:02;;;;;;;51.15;32.70;;;;;;;21.69;49.32;99091.34;4961404;28;20037;-92
2023/06/02 07:00:35;;;;;;;6.40;3.03;;;;;;;21.84;46.04;99089.00;4949566;28;20110;-92
2023/06/02 07:03:00;;;;;;;4.78;3.30;;;;;;;22.07;45.38;99092.72;4996890;28;20031;-92
2023/06/02 07:05:28;;;;;;;9.80;5.72;;;;;;;22.28;45.79;99094.47;4953848;28;20026;-94
2023/06/02 07:07:54;;;;;;;5.90;2.90;;;;;;;22.38;44.04;99089.22;4955404;28;20161;-94
2023/06/02 07:10:19;;;;;;;5.90;3.30;;;;;;;22.57;44.12;99099.47;4974923;28;20023;-95
2023/06/02 07:12:47;;;;;;;9.52;3.63;;;;;;;22.77;45.22;99105.06;4968760;28;20382;-93
2023/06/02 07:15:18;;;;;;;6.90;3.70;;;;;;;22.98;44.70;99111.03;4968824;28;20096;-93
2023/06/02 07:17:45;;;;;;;11.17;3.27;;;;;;;23.06;43.06;99089.25;4952268;28;20034;-90
2023/06/02 07:20:12;;;;;;;7.95;3.30;;;;;;;23.24;43.47;99100.59;4965863;28;20049;-90
2023/06/02 07:22:40;;;;;;;7.85;3.58;;;;;;;23.24;43.92;99086.88;4972657;28;20022;-94
2023/06/02 07:25:06;;;;;;;5.53;3.20;;;;;;;23.47;43.43;99098.75;5013100;28;20026;-95
2023/06/02 07:27:46;;;;;;;4.85;3.20;;;;;;;23.57;43.08;99084.44;4988522;28;20059;-95
2023/06/02 07:30:11;;;;;;;10.52;3.13;;;;;;;23.84;43.35;99114.00;5003851;28;20372;-94
2023/06/02 07:32:37;;;;;;;4.97;3.03;;;;;;;23.72;42.03;99113.00;5013529;28;20081;-92
2023/06/02 07:35:03;;;;;;;12.73;4.05;;;;;;;23.88;43.28;99110.16;4996122;28;20029;-92
2023/06/02 07:37:28;;;;;;;7.60;4.10;;;;;;;24.05;43.20;99113.59;5002447;28;20029;-96
2023/06/02 07:39:57;;;;;;;16.98;5.88;;;;;;;24.17;42.25;99102.44;4987205;28;20026;-93
2023/06/02 07:42:22;;;;;;;9.35;4.68;;;;;;;24.27;41.67;99101.81;5000477;28;20064;-90
2023/06/02 07:45:01;;;;;;;12.48;4.40;;;;;;;24.30;41.82;99095.59;5002378;28;20143;-95
2023/06/02 07:47:26;;;;;;;8.80;4.60;;;;;;;24.41;41.33;99102.06;5000310;28;20049;-96
2023/06/02 07:49:51;;;;;;;6.30;2.90;;;;;;;24.43;40.84;99092.66;4986792;28;20025;-94
2023/06/02 07:52:17;;;;;;;4.97;3.10;;;;;;;24.56;40.64;99094.06;4993203;28;20431;-96
2023/06/02 07:54:43;;;;;;;6.57;3.10;;;;;;;24.65;40.05;99105.59;5006055;28;20079;-93
2023/06/02 07:57:09;;;;;;;6.28;4.15;;;;;;;24.76;40.71;99112.09;5020019;28;20029;-95
2023/06/02 07:59:36;;;;;;;7.07;3.28;;;;;;;24.87;39.34;99103.19;4986813;28;20086;-94
2023/06/02 08:02:05;;;;;;;9.27;3.13;;;;;;;25.05;38.62;99119.97;5004123;28;20017;-94
2023/06/02 08:04:31;;;;;;;7.90;3.20;;;;;;;24.99;39.15;99109.28;5021803;28;20018;-95
2023/06/02 08:06:57;;;;;;;4.43;2.90;;;;;;;24.99;39.14;99098.25;5036498;28;20025;-95
2023/06/02 08:09:25;;;;;;;4.78;3.28;;;;;;;25.04;39.56;99107.38;5003232;28;20208;-94
2023/06/02 08:11:51;;;;;;;8.30;3.50;;;;;;;25.26;39.66;99109.28;5014227;28;20499;-95
2023/06/02 08:14:17;;;;;;;4.82;3.40;;;;;;;25.22;39.42;99100.16;4972638;28;20045;-93
2023/06/02 08:16:43;;;;;;;3.95;2.63;;;;;;;25.22;38.26;99100.16;4980389;28;20042;-94
2023/06/02 08:19:10;;;;;;;9.38;3.22;;;;;;;25.44;38.71;99101.22;4997305;28;20149;-94
2023/06/02 08:21:36;;;;;;;12.48;3.97;;;;;;;25.48;39.09;99093.00;4995870;28;20061;-95
2023/06/02 08:24:02;;;;;;;6.10;3.00;;;;;;;25.51;38.21;99089.50;5003010;28;20037;-96
2023/06/02 08:26:34;;;;;;;5.10;3.20;;;;;;;25.68;38.05;99093.63;5001338;28;20030;-93
2023/06/02 08:28:59;;;;;;;3.95;3.08;;;;;;;25.80;36.76;99090.63;4993800;28;20108;-93
2023/06/02 08:31:25;;;;;;;4.60;2.90;;;;;;;25.98;37.92;99099.91;5000340;28;20034;-91
2023/06/02 08:33:57;;;;;;;4.50;3.00;;;;;;;26.06;36.72;99089.72;5001029;28;20028;-94
2023/06/02 08:36:23;;;;;;;6.30;3.88;;;;;;;26.09;36.43;99075.16;4968980;28;20033;-93
2023/06/02 08:38:53;;;;;;;8.75;3.88;;;;;;;26.17;35.23;99082.34;4987751;28;20026;-95
2023/06/02 08:41:18;;;;;;;6.95;3.03;;;;;;;26.23;34.94;99073.69;4985395;28;20191;-94
2023/06/02 08:43:44;;;;;;;7.88;3.35;;;;;;;26.22;33.74;99067.38;5004055;28;20034;-96
2023/06/02 08:46:12;;;;;;;11.32;3.80;;;;;;;26.41;33.31;99069.91;4985288;28;20093;-95
2023/06/02 08:48:57;;;;;;;4.13;3.08;;;;;;;26.49;32.53;99069.97;4983271;28;20033;-93
2023/06/02 08:51:22;;;;;;;6.18;3.33;;;;;;;26.48;34.10;99068.38;5004218;28;20087;-95
2023/06/02 08:53:48;;;;;;;5.20;3.38;;;;;;;26.64;33.19;99059.84;5000900;28;20042;-92
2023/06/02 08:56:14;;;;;;;8.50;3.55;;;;;;;26.83;32.87;99075.34;4985400;28;20484;-94
2023/06/02 08:58:40;;;;;;;10.10;5.78;;;;;;;26.82;31.12;99060.75;5002506;28;20030;-95
2023/06/02 09:01:06;;;;;;;6.03;3.88;;;;;;;26.97;31.63;99067.16;4984286;28;20049;-94
2023/06/02 09:03:35;;;;;;;5.13;3.45;;;;;;;26.91;31.01;99057.63;5000666;28;20121;-95
2023/06/02 09:06:00;;;;;;;5.22;3.10;;;;;;;26.99;31.81;99065.56;4984662;28;20026;-94
2023/06/02 09:08:29;;;;;;;5.82;3.35;;;;;;;27.00;31.08;99063.63;5003489;28;20018;-93
2023/06/02 09:10:55;;;;;;;6.53;3.28;;;;;;;27.08;32.03;99067.19;5000288;28;20033;-95
2023/06/02 09:13:33;;;;;;;8.55;4.55;;;;;;;27.27;30.86;99064.19;4983984;28;20469;-93
2023/06/02 09:16:12;;;;;;;5.80;3.22;;;;;;;27.02;30.56;99036.41;4986669;28;20026;-96
2023/06/02 09:18:38;;;;;;;6.43;3.22;;;;;;;27.00;30.29;99044.28;5006654;28;20053;-95
2023/06/02 09:21:03;;;;;;;9.57;4.05;;;;;;;27.01;30.78;99048.63;4986475;28;20050;-95
2023/06/02 09:23:45;;;;;;;6.03;3.75;;;;;;;27.24;30.85;99029.00;4985947;28;20033;-96
2023/06/02 09:26:18;;;;;;;8.20;3.67;;;;;;;27.27;31.61;99046.78;5009025;28;20046;-95
2023/06/02 09:29:13;;;;;;;6.43;3.42;;;;;;;27.22;29.85;99025.81;5005160;28;20030;-96
2023/06/02 09:31:55;;;;;;;5.15;2.67;;;;;;;27.39;30.73;99025.13;4983027;28;20050;-95
2023/06/02 09:34:24;;;;;;;6.35;3.30;;;;;;;27.56;31.25;99031.88;5019578;28;20030;-94
2023/06/02 09:36:51;;;;;;;6.25;2.83;;;;;;;27.50;30.69;99014.06;5001922;28;20455;-95
2023/06/02 09:40:03;;;;;;;;;;;;;;;;;;;;;
2023/06/02 09:42:52;;;;;;;7.50;3.83;;;;;;;27.69;30.07;99020.44;4924557;29;20040;-94
2023/06/02 09:45:18;;;;;;;5.15;3.35;;;;;;;27.77;31.07;99013.75;4975695;28;20492;-94
2023/06/02 09:47:43;;;;;;;6.25;3.30;;;;;;;27.86;29.26;99011.38;5006106;28;20041;-93
2023/06/02 09:50:10;;;;;;;10.63;8.32;;;;;;;27.72;28.96;99005.81;4998942;28;20033;-95
2023/06/02 09:52:35;;;;;;;5.47;3.00;;;;;;;27.64;28.85;98993.16;4966418;28;20033;-93
2023/06/02 09:55:01;;;;;;;5.35;3.00;;;;;;;27.49;28.80;99003.41;4981579;28;20097;-91
2023/06/02 09:58:01;;;;;;;4.80;3.00;;;;;;;27.79;28.83;99003.06;5013380;28;20026;-95
2023/06/02 10:00:27;;;;;;;6.10;2.70;;;;;;;28.18;30.03;99005.06;4982648;28;20041;-91
2023/06/02 10:02:52;;;;;;;6.40;2.67;;;;;;;28.41;27.56;99015.75;4996689;28;20057;-92
2023/06/02 10:05:22;;;;;;;7.63;2.97;;;;;;;28.49;28.40;99008.19;5015883;28;20525;-96
2023/06/02 10:08:09;;;;;;;9.48;3.70;;;;;;;28.85;28.34;99013.69;4998339;28;20038;-93
2023/06/02 10:10:46;;;;;;;5.68;3.22;;;;;;;28.77;29.03;99010.94;5014665;28;20063;-94
2023/06/02 10:13:18;;;;;;;4.60;2.80;;;;;;;28.74;27.39;98999.84;5014957;28;20544;-93
2023/06/02 10:16:35;;;;;;;4.18;2.70;;;;;;;28.70;26.78;99012.94;4996891;28;20091;-92
2023/06/02 10:19:22;;;;;;;8.13;3.83;;;;;;;28.95;28.13;99008.13;4963396;28;20052;-93
2023/06/02 10:22:06;;;;;;;8.50;3.20;;;;;;;29.16;28.06;99012.81;5000877;28;20113;-94
2023/06/02 10:24:50;;;;;;;7.55;3.10;;;;;;;29.24;26.94;99013.56;4995372;28;20069;-91
2023/06/02 10:27:32;;;;;;;9.05;3.55;;;;;;;29.23;27.16;99002.88;5013974;28;20099;-89
2023/06/02 10:29:57;;;;;;;6.07;3.35;;;;;;;29.16;26.70;98985.09;4963839;28;20034;-90
2023/06/02 10:32:24;;;;;;;5.43;2.92;;;;;;;29.21;26.20;98978.31;4965169;28;20065;-94
2023/06/02 10:34:59;;;;;;;6.30;2.80;;;;;;;29.20;27.71;98977.53;4983136;28;20030;-91
2023/06/02 10:37:26;;;;;;;8.70;3.30;;;;;;;29.20;26.94;98976.75;4981867;28;20073;-92
2023/06/02 10:40:04;;;;;;;10.02;4.18;;;;;;;29.24;28.34;98974.75;4964684;28;20038;-92
2023/06/02 10:42:31;;;;;;;5.78;2.88;;;;;;;29.32;25.58;98978.25;4994016;28;20571;-92
2023/06/02 10:45:27;;;;;;;8.02;3.35;;;;;;;29.43;25.61;98979.00;4964411;28;20022;-90
2023/06/02 10:47:53;;;;;;;4.80;2.83;;;;;;;29.49;25.95;98985.69;5004564;28;20049;-93
2023/06/02 10:50:24;;;;;;;4.50;2.90;;;;;;;29.46;26.14;98963.50;4965214;28;20029;-92
2023/06/02 10:52:59;;;;;;;9.50;3.00;;;;;;;29.58;27.07;98974.91;4964790;28;20065;-92
2023/06/02 10:55:26;;;;;;;9.60;3.20;;;;;;;29.53;26.84;98971.78;5014657;28;20519;-91
2023/06/02 10:58:01;;;;;;;7.07;3.45;;;;;;;29.60;25.90;98969.75;4980469;28;20034;-91
2023/06/02 11:00:30;;;;;;;4.20;2.55;;;;;;;29.36;25.86;98951.28;4963814;28;20029;-92
2023/06/02 11:02:56;;;;;;;4.20;2.45;;;;;;;29.25;26.18;98947.81;5011796;28;20022;-91
2023/06/02 11:05:32;;;;;;;6.45;3.35;;;;;;;29.17;26.63;98939.50;4962628;28;20498;-92
2023/06/02 11:08:23;;;;;;;5.53;3.38;;;;;;;29.45;26.25;98961.91;5004024;28;20488;-93
2023/06/02 11:10:51;;;;;;;3.87;2.57;;;;;;;29.45;26.18;98951.63;4999588;28;20124;-95
2023/06/02 11:13:21;;;;;;;4.00;2.90;;;;;;;29.31;27.09;98935.88;4981014;28;20844;-94
2023/06/02 11:15:57;;;;;;;5.00;3.70;;;;;;;29.64;26.01;98946.75;4996584;28;20050;-95
2023/06/02 11:18:30;;;;;;;5.75;3.67;;;;;;;29.83;26.58;98954.56;4995399;28;20467;-93
2023/06/02 11:20:56;;;;;;;8.93;3.40;;;;;;;29.77;26.40;98933.97;5015334;28;20074;-95
2023/06/02 11:23:22;;;;;;;5.50;3.40;;;;;;;29.97;25.51;98920.34;4980246;28;20048;-93
2023/06/02 11:25:49;;;;;;;5.95;3.50;;;;;;;30.17;25.48;98934.41;4964385;28;20546;-92
2023/06/02 11:28:21;;;;;;;5.57;2.78;;;;;;;30.17;24.71;98929.66;4965885;28;20483;-94
2023/06/02 11:31:05;;;;;;;5.75;2.70;;;;;;;29.85;25.90;98912.50;4968431;28;20415;-94
2023/06/02 11:33:34;;;;;;;5.45;2.90;;;;;;;29.99;25.62;98940.94;4980934;28;20057;-93
2023/06/02 11:36:12;;;;;;;;;;;;;;;;;;;;;
2023/06/02 11:38:43;;;;;;;4.18;2.65;;;;;;;29.91;25.36;98903.31;5000121;28;20128;-92
2023/06/02 11:41:16;;;;;;;7.78;3.20;;;;;;;30.12;24.92;98910.66;5000560;28;20033;-92